createdAt,value
2022-08-07T00:01:12.484Z,71.58
2022-08-07T00:03:50.535Z,71.86
2022-08-07T00:06:29.273Z,71.95
2022-08-07T00:09:16.396Z,71.80
2022-08-07T00:11:55.494Z,72.09
2022-08-07T00:14:34.790Z,72.01
2022-08-07T00:17:06.716Z,72.06
2022-08-07T00:20:01.174Z,71.89
2022-08-07T00:22:35.154Z,71.84
2022-08-07T00:25:15.675Z,71.98
2022-08-07T00:27:53.323Z,72.24
2022-08-07T00:30:27.313Z,72.02
2022-08-07T00:32:58.308Z,71.96
2022-08-07T00:35:30.223Z,72.09
2022-08-07T00:37:59.334Z,72.25
2022-08-07T00:40:39.320Z,72.04
2022-08-07T00:43:59.753Z,71.93
2022-08-07T00:46:03.189Z,72.12
2022-08-07T00:48:33.493Z,71.98
2022-08-07T00:51:03.459Z,72.00
2022-08-07T00:53:39.161Z,71.75
2022-08-07T00:56:21.179Z,72.15
2022-08-07T00:58:50.102Z,72.07
2022-08-07T01:01:20.047Z,72.22
2022-08-07T01:03:56.509Z,72.25
2022-08-07T01:06:30.014Z,72.23
2022-08-07T01:09:02.843Z,72.24
2022-08-07T01:12:20.796Z,72.34
2022-08-07T01:14:32.215Z,72.51
2022-08-07T01:17:09.784Z,72.47
2022-08-07T01:19:41.925Z,72.70
2022-08-07T01:22:22.773Z,72.61
2022-08-07T01:25:00.992Z,72.78
2022-08-07T01:27:35.518Z,72.88
2022-08-07T01:30:08.966Z,73.09
2022-08-07T01:32:40.322Z,73.32
2022-08-07T01:35:17.152Z,73.49
2022-08-07T01:37:46.972Z,73.27
2022-08-07T01:40:22.240Z,73.37
2022-08-07T01:42:58.847Z,73.34
2022-08-07T01:45:37.225Z,73.35
2022-08-07T01:48:20.677Z,73.57
2022-08-07T01:52:01.032Z,73.78
2022-08-07T01:54:12.761Z,73.92
2022-08-07T01:56:54.236Z,74.13
2022-08-07T01:59:30.904Z,74.15
2022-08-07T02:02:06.697Z,74.16
2022-08-07T02:04:52.531Z,74.29
2022-08-07T02:07:45.206Z,74.35
2022-08-07T02:10:24.890Z,74.43
2022-08-07T02:12:56.033Z,74.57
2022-08-07T02:15:30.017Z,74.43
2022-08-07T02:17:59.925Z,74.48
2022-08-07T02:20:30.601Z,74.73
2022-08-07T02:23:02.443Z,74.80
2022-08-07T02:26:10.371Z,74.94
2022-08-07T02:28:24.568Z,75.07
2022-08-07T02:30:55.478Z,74.99
2022-08-07T02:33:32.837Z,75.07
2022-08-07T02:36:26.993Z,75.25
2022-08-07T02:38:59.692Z,75.51
2022-08-07T02:41:33.511Z,75.52
2022-08-07T02:44:06.963Z,75.62
2022-08-07T02:46:46.613Z,75.68
2022-08-07T02:49:56.017Z,75.60
2022-08-07T02:52:10.795Z,75.66
2022-08-07T02:54:43.134Z,75.93
2022-08-07T02:57:15.290Z,75.94
2022-08-07T02:59:54.829Z,76.11
2022-08-07T03:02:24.294Z,76.15
2022-08-07T03:04:56.438Z,76.32
2022-08-07T03:08:05.073Z,76.37
2022-08-07T03:10:17.356Z,76.40
2022-08-07T03:12:48.262Z,76.50
2022-08-07T03:15:30.150Z,76.49
2022-08-07T03:18:09.841Z,76.45
2022-08-07T03:20:47.420Z,76.71
2022-08-07T03:23:19.355Z,76.76
2022-08-07T03:25:58.371Z,76.91
2022-08-07T03:28:38.492Z,77.05
2022-08-07T03:31:23.717Z,77.30
2022-08-07T03:33:57.145Z,77.23
2022-08-07T03:36:29.746Z,77.52
2022-08-07T03:39:05.592Z,77.51
2022-08-07T03:41:42.542Z,77.47
2022-08-07T03:44:31.763Z,77.63
2022-08-07T03:47:10.812Z,77.57
2022-08-07T03:49:41.741Z,77.66
2022-08-07T03:52:22.647Z,77.58
2022-08-07T03:54:57.450Z,77.61
2022-08-07T03:58:34.691Z,77.66
2022-08-07T04:00:30.279Z,77.89
2022-08-07T04:03:03.812Z,78.01
2022-08-07T04:05:42.268Z,78.05
2022-08-07T04:08:15.887Z,78.05
2022-08-07T04:10:54.353Z,77.98
2022-08-07T04:14:10.528Z,77.98
2022-08-07T04:16:31.007Z,77.70
2022-08-07T04:19:04.095Z,77.70
2022-08-07T04:21:59.666Z,77.44
2022-08-07T04:24:38.741Z,77.42
2022-08-07T04:27:15.103Z,77.20
2022-08-07T04:30:01.390Z,76.87
2022-08-07T04:32:34.484Z,76.75
2022-08-07T04:35:11.280Z,76.52
2022-08-07T04:38:03.503Z,76.29
2022-08-07T04:40:32.225Z,75.98
2022-08-07T04:43:03.834Z,75.73
2022-08-07T04:45:57.798Z,75.75
2022-08-07T04:48:36.422Z,75.16
2022-08-07T04:51:09.263Z,74.98
2022-08-07T04:54:05.515Z,74.73
2022-08-07T04:58:13.927Z,74.27
2022-08-07T05:00:10.858Z,74.30
2022-08-07T05:02:33.207Z,74.05
2022-08-07T05:05:51.977Z,73.32
2022-08-07T05:08:03.959Z,73.12
2022-08-07T05:10:40.100Z,72.54
2022-08-07T05:14:53.515Z,72.36
2022-08-07T05:16:09.421Z,70.93
2022-08-07T05:18:47.464Z,71.10
2022-08-07T05:22:00.366Z,71.10
2022-08-07T05:24:13.162Z,70.96
2022-08-07T05:26:46.283Z,71.02
2022-08-07T05:29:18.065Z,70.74
2022-08-07T05:31:53.036Z,70.29
2022-08-07T05:34:26.166Z,70.15
2022-08-07T05:36:57.267Z,70.43
2022-08-07T05:40:16.687Z,70.27
2022-08-07T05:42:33.774Z,68.30
2022-08-07T05:45:26.231Z,67.04
2022-08-07T05:48:02.475Z,66.04
2022-08-07T05:50:33.776Z,65.70
2022-08-07T05:53:02.733Z,65.25
2022-08-07T05:56:02.023Z,65.23
2022-08-07T05:58:36.624Z,64.94
2022-08-07T06:01:10.570Z,64.91
2022-08-07T06:04:01.372Z,65.78
2022-08-07T06:06:32.607Z,66.18
2022-08-07T06:09:04.396Z,65.12
2022-08-07T06:11:34.049Z,64.83
2022-08-07T06:14:11.884Z,64.51
2022-08-07T06:16:50.700Z,64.68
2022-08-07T06:19:52.212Z,63.47
2022-08-07T06:22:23.313Z,64.66
2022-08-07T06:24:58.318Z,64.61
2022-08-07T06:27:44.279Z,62.84
2022-08-07T06:30:31.988Z,62.96
2022-08-07T06:33:17.627Z,62.33
2022-08-07T06:36:12.873Z,62.69
2022-08-07T06:38:59.353Z,63.78
2022-08-07T06:42:02.566Z,64.36
2022-08-07T06:44:31.053Z,63.64
2022-08-07T06:47:12.181Z,63.03
2022-08-07T06:49:51.807Z,59.27
2022-08-07T06:52:36.583Z,58.77
2022-08-07T06:55:32.758Z,59.79
2022-08-07T06:58:10.243Z,60.01
2022-08-07T07:00:42.394Z,60.91
2022-08-07T07:03:13.907Z,60.05
2022-08-07T07:06:02.739Z,59.33
2022-08-07T07:08:34.255Z,58.70
2022-08-07T07:11:13.994Z,59.86
2022-08-07T07:13:58.781Z,60.53
2022-08-07T07:16:49.564Z,59.52
2022-08-07T07:19:57.281Z,59.71
2022-08-07T07:22:33.852Z,57.74
2022-08-07T07:26:31.498Z,58.13
2022-08-07T07:28:03.202Z,58.97
2022-08-07T07:30:38.404Z,58.73
2022-08-07T07:33:13.511Z,58.61
2022-08-07T07:36:03.962Z,56.92
2022-08-07T07:38:38.603Z,56.96
2022-08-07T07:41:12.082Z,55.49
2022-08-07T07:43:47.863Z,53.40
2022-08-07T07:46:53.945Z,54.47
2022-08-07T07:50:35.830Z,55.23
2022-08-07T07:52:17.932Z,54.74
2022-08-07T07:54:51.265Z,53.17
2022-08-07T07:57:43.948Z,52.72
2022-08-07T08:00:15.031Z,53.72
2022-08-07T08:03:05.217Z,53.95
2022-08-07T08:05:53.655Z,50.43
2022-08-07T08:08:35.112Z,49.27
2022-08-07T08:11:16.191Z,49.86
2022-08-07T08:13:58.751Z,49.65
2022-08-07T08:16:32.328Z,50.73
2022-08-07T08:19:17.963Z,49.78
2022-08-07T08:22:17.180Z,50.71
2022-08-07T08:25:24.907Z,51.77
2022-08-07T08:28:03.482Z,52.15
2022-08-07T08:30:34.807Z,50.70
2022-08-07T08:33:10.354Z,49.69
2022-08-07T08:35:49.910Z,51.17
2022-08-07T08:38:25.904Z,52.07
2022-08-07T08:41:08.159Z,51.77
2022-08-07T08:43:58.659Z,50.20
2022-08-07T08:46:38.229Z,51.54
2022-08-07T08:49:17.186Z,51.27
2022-08-07T08:52:14.313Z,51.03
2022-08-07T08:54:52.532Z,46.79
2022-08-07T08:57:30.344Z,44.73
2022-08-07T09:00:06.305Z,43.71
2022-08-07T09:02:49.526Z,45.90
2022-08-07T09:05:36.931Z,46.36
2022-08-07T09:08:17.858Z,46.31
2022-08-07T09:11:02.913Z,43.77
2022-08-07T09:13:38.293Z,43.50
2022-08-07T09:16:23.408Z,43.18
2022-08-07T09:19:50.786Z,44.47
2022-08-07T09:24:28.153Z,44.50
2022-08-07T09:25:17.308Z,42.90
2022-08-07T09:28:04.713Z,45.30
2022-08-07T09:30:56.952Z,46.27
2022-08-07T09:33:52.639Z,45.54
2022-08-07T09:36:35.380Z,44.43
2022-08-07T09:39:53.867Z,43.33
2022-08-07T09:42:33.596Z,43.97
2022-08-07T09:47:25.943Z,42.01
2022-08-07T09:48:18.794Z,42.91
2022-08-07T09:50:56.636Z,41.87
2022-08-07T09:53:40.778Z,39.53
2022-08-07T09:56:39.386Z,40.24
2022-08-07T09:59:35.682Z,39.16
2022-08-07T10:02:33.002Z,41.27
2022-08-07T10:05:58.205Z,39.99
2022-08-07T10:08:49.586Z,39.53
2022-08-07T10:12:03.154Z,39.74
2022-08-07T10:14:41.089Z,37.75
2022-08-07T10:17:22.602Z,38.17
2022-08-07T10:20:14.518Z,38.12
2022-08-07T10:23:13.469Z,38.33
2022-08-07T10:25:57.969Z,40.14
2022-08-07T10:28:49.408Z,40.00
2022-08-07T10:31:38.973Z,36.81
2022-08-07T10:34:32.007Z,34.79
2022-08-07T10:37:14.161Z,36.67
2022-08-07T10:40:02.595Z,36.48
2022-08-07T10:42:38.704Z,35.22
2022-08-07T10:45:45.083Z,35.76
2022-08-07T10:48:21.893Z,31.92
2022-08-07T10:50:54.945Z,34.91
2022-08-07T10:53:44.496Z,35.03
2022-08-07T10:56:31.398Z,33.74
2022-08-07T10:59:13.486Z,35.43
2022-08-07T11:02:04.889Z,34.21
2022-08-07T11:04:55.464Z,35.21
2022-08-07T11:07:59.277Z,32.17
2022-08-07T11:10:20.206Z,31.56
2022-08-07T11:13:04.827Z,33.96
2022-08-07T11:15:40.161Z,34.95
2022-08-07T11:18:20.443Z,32.21
2022-08-07T11:20:59.561Z,32.92
2022-08-07T11:23:38.514Z,33.12
2022-08-07T11:26:16.890Z,32.67
2022-08-07T11:28:55.257Z,32.55
2022-08-07T11:31:35.288Z,29.92
2022-08-07T11:34:16.489Z,31.09
2022-08-07T11:37:00.479Z,32.67
2022-08-07T11:40:00.036Z,31.49
2022-08-07T11:42:40.137Z,31.23
2022-08-07T11:45:20.715Z,31.83
2022-08-07T11:48:29.365Z,32.08
2022-08-07T11:51:41.434Z,28.39
2022-08-07T11:54:31.125Z,30.31
2022-08-07T11:57:15.935Z,31.59
2022-08-07T12:00:19.231Z,30.83
2022-08-07T12:03:03.420Z,30.33
2022-08-07T12:05:49.560Z,30.27
2022-08-07T12:08:31.884Z,27.77
2022-08-07T12:11:21.119Z,28.41
2022-08-07T12:13:59.346Z,29.47
2022-08-07T12:16:41.463Z,28.80
2022-08-07T12:19:22.068Z,28.06
2022-08-07T12:22:38.781Z,28.33
2022-08-07T12:26:05.882Z,28.45
2022-08-07T12:28:31.099Z,29.52
2022-08-07T12:31:09.349Z,28.20
2022-08-07T12:34:01.405Z,28.96
2022-08-07T12:36:50.156Z,28.80
2022-08-07T12:39:43.833Z,27.76
2022-08-07T12:42:32.124Z,28.59
2022-08-07T12:45:14.534Z,28.64
2022-08-07T12:47:50.284Z,29.65
2022-08-07T12:50:39.080Z,30.73
2022-08-07T12:53:22.213Z,30.98
2022-08-07T12:56:03.973Z,31.73
2022-08-07T12:58:39.931Z,31.46
2022-08-07T13:01:37.397Z,30.66
2022-08-07T13:04:32.634Z,30.20
2022-08-07T13:08:12.459Z,30.32
2022-08-07T13:10:40.854Z,26.93
2022-08-07T13:13:46.790Z,28.45
2022-08-07T13:16:22.036Z,28.32
2022-08-07T13:19:01.928Z,27.33
2022-08-07T13:21:51.153Z,27.09
2022-08-07T13:24:29.358Z,27.17
2022-08-07T13:27:09.020Z,28.00
2022-08-07T13:29:46.887Z,29.19
2022-08-07T13:32:32.704Z,29.70
2022-08-07T13:35:10.076Z,29.98
2022-08-07T13:37:59.131Z,29.90
2022-08-07T13:40:35.645Z,29.55
2022-08-07T13:43:13.449Z,29.92
2022-08-07T13:46:16.372Z,30.99
2022-08-07T13:48:38.951Z,30.07
2022-08-07T13:51:26.936Z,28.90
2022-08-07T13:54:03.713Z,27.91
2022-08-07T13:56:41.351Z,29.68
2022-08-07T13:59:30.711Z,30.44
2022-08-07T14:02:08.627Z,29.56
2022-08-07T14:04:54.582Z,29.85
2022-08-07T14:07:29.193Z,29.89
2022-08-07T14:10:16.288Z,28.83
2022-08-07T14:12:55.768Z,27.13
2022-08-07T14:15:43.705Z,27.87
2022-08-07T14:18:29.351Z,27.81
2022-08-07T14:21:08.183Z,28.45
2022-08-07T14:24:01.218Z,28.86
2022-08-07T14:26:40.515Z,28.81
2022-08-07T14:30:05.757Z,29.34
2022-08-07T14:32:09.084Z,29.98
2022-08-07T14:34:47.002Z,30.43
2022-08-07T14:37:19.303Z,29.96
2022-08-07T14:40:18.099Z,29.49
2022-08-07T14:43:01.399Z,28.45
2022-08-07T14:45:46.591Z,28.03
2022-08-07T14:48:36.107Z,27.95
2022-08-07T14:51:16.315Z,28.38
2022-08-07T14:56:43.729Z,28.67
2022-08-07T15:07:58.519Z,28.85
2022-08-07T15:10:30.074Z,29.46
2022-08-07T15:13:11.660Z,29.64
2022-08-07T15:15:52.684Z,30.01
2022-08-07T15:18:35.853Z,31.16
2022-08-07T15:21:44.086Z,31.26
2022-08-07T15:25:15.717Z,30.47
2022-08-07T15:26:57.583Z,30.57
2022-08-07T15:32:40.109Z,29.94
2022-08-07T15:35:19.122Z,29.97
2022-08-07T15:38:29.775Z,29.95
2022-08-07T15:41:23.019Z,30.25
2022-08-07T15:43:59.323Z,31.35
2022-08-07T15:46:32.096Z,32.16
2022-08-07T15:49:15.321Z,32.39
2022-08-07T15:54:34.574Z,32.22
2022-08-07T15:57:39.352Z,31.70
2022-08-07T16:00:04.425Z,31.23
2022-08-07T16:02:40.335Z,31.16
2022-08-07T16:05:15.381Z,31.04
2022-08-07T16:08:33.056Z,30.81
2022-08-07T16:10:40.318Z,31.08
2022-08-07T16:13:58.594Z,30.63
2022-08-07T16:16:43.389Z,29.82
2022-08-07T16:19:58.629Z,30.07
2022-08-07T16:22:55.301Z,29.85
2022-08-07T16:25:54.117Z,29.95
2022-08-07T16:30:08.698Z,29.66
2022-08-07T16:31:51.045Z,30.65
2022-08-07T16:34:48.920Z,30.84
2022-08-07T16:38:04.364Z,30.50
2022-08-07T16:41:02.282Z,30.52
2022-08-07T16:44:04.343Z,30.16
2022-08-07T16:47:07.583Z,29.88
2022-08-07T16:50:20.355Z,30.33
2022-08-07T16:54:01.236Z,30.92
2022-08-07T16:56:37.348Z,29.76
2022-08-07T16:59:15.131Z,30.36
2022-08-07T17:02:03.487Z,30.81
2022-08-07T17:04:50.975Z,31.07
2022-08-07T17:07:55.695Z,31.29
2022-08-07T17:10:32.425Z,32.05
2022-08-07T17:13:24.879Z,32.46
2022-08-07T17:16:17.771Z,33.06
2022-08-07T17:18:57.521Z,33.17
2022-08-07T17:21:51.267Z,33.68
2022-08-07T17:24:41.233Z,34.14
2022-08-07T17:27:20.087Z,34.78
2022-08-07T17:30:16.193Z,35.00
2022-08-07T17:33:02.682Z,35.36
2022-08-07T17:35:50.323Z,35.55
2022-08-07T17:38:34.172Z,36.14
2022-08-07T17:41:30.589Z,36.80
2022-08-07T17:44:03.221Z,37.01
2022-08-07T17:46:43.429Z,37.22
2022-08-07T17:49:23.061Z,37.43
2022-08-07T17:52:02.304Z,37.66
2022-08-07T17:54:53.271Z,37.90
2022-08-07T17:57:58.812Z,38.48
2022-08-07T18:00:33.180Z,38.72
2022-08-07T18:03:18.448Z,39.31
2022-08-07T18:06:01.303Z,39.54
2022-08-07T18:12:07.375Z,40.41
2022-08-07T18:14:37.691Z,40.57
2022-08-07T18:18:45.212Z,40.82
2022-08-07T18:21:03.630Z,41.35
2022-08-07T18:23:06.187Z,42.08
2022-08-07T18:26:01.675Z,42.49
2022-08-07T18:28:58.299Z,42.91
2022-08-07T18:31:38.889Z,43.22
2022-08-07T18:34:34.810Z,43.55
2022-08-07T18:38:57.524Z,44.18
2022-08-07T18:40:42.434Z,44.58
2022-08-07T18:43:14.967Z,44.92
2022-08-07T18:46:25.206Z,45.04
2022-08-07T18:50:05.649Z,45.60
2022-08-07T18:52:38.048Z,46.30
2022-08-07T18:54:37.287Z,46.52
2022-08-07T18:57:30.579Z,46.70
2022-08-07T19:00:34.199Z,46.89
2022-08-07T19:03:02.065Z,47.41
2022-08-07T19:06:03.867Z,47.66
2022-08-07T19:08:27.553Z,47.92
2022-08-07T19:11:01.957Z,47.92
2022-08-07T19:14:01.831Z,48.34
2022-08-07T19:17:04.665Z,48.58
2022-08-07T19:19:38.452Z,48.87
2022-08-07T19:22:30.990Z,49.04
2022-08-07T19:25:06.711Z,49.36
2022-08-07T19:28:57.600Z,49.76
2022-08-07T19:31:03.015Z,50.45
2022-08-07T19:33:33.630Z,50.88
2022-08-07T19:36:05.388Z,51.46
2022-08-07T19:38:53.380Z,51.42
2022-08-07T19:41:44.160Z,51.65
2022-08-07T19:44:21.988Z,52.00
2022-08-07T19:46:55.868Z,52.54
2022-08-07T19:49:58.454Z,52.42
2022-08-07T19:52:19.262Z,52.47
2022-08-07T19:54:56.300Z,52.63
2022-08-07T19:58:02.492Z,53.02
2022-08-07T20:00:28.186Z,53.26
2022-08-07T20:03:03.389Z,53.77
2022-08-07T20:05:59.594Z,54.31
2022-08-07T20:08:25.266Z,55.16
2022-08-07T20:11:03.579Z,54.94
2022-08-07T20:13:42.597Z,54.91
2022-08-07T20:16:32.275Z,54.91
2022-08-07T20:19:10.514Z,55.11
2022-08-07T20:21:47.463Z,55.29
2022-08-07T20:24:21.072Z,55.55
2022-08-07T20:26:52.257Z,55.87
2022-08-07T20:29:49.493Z,55.96
2022-08-07T20:32:23.044Z,56.22
2022-08-07T20:34:56.883Z,56.24
2022-08-07T20:37:29.724Z,56.47
2022-08-07T20:40:05.094Z,56.83
2022-08-07T20:42:56.208Z,57.44
2022-08-07T20:46:24.470Z,57.66
2022-08-07T20:48:29.051Z,57.80
2022-08-07T20:51:01.355Z,57.65
2022-08-07T20:54:01.946Z,57.69
2022-08-07T20:56:26.187Z,57.94
2022-08-07T20:58:58.557Z,58.05
2022-08-07T21:01:29.549Z,58.14
2022-08-07T21:04:22.091Z,58.20
2022-08-07T21:06:56.832Z,58.20
2022-08-07T21:09:52.096Z,58.35
2022-08-07T21:12:25.991Z,58.63
2022-08-07T21:15:01.194Z,58.64
2022-08-07T21:18:01.877Z,58.87
2022-08-07T21:20:56.458Z,59.12
2022-08-07T21:23:49.409Z,59.52
2022-08-07T21:26:35.031Z,59.58
2022-08-07T21:29:15.734Z,59.56
2022-08-07T21:32:43.188Z,59.86
2022-08-07T21:34:48.367Z,59.88
2022-08-07T21:37:22.599Z,59.76
2022-08-07T21:39:56.653Z,60.29
2022-08-07T21:42:46.737Z,60.50
2022-08-07T21:46:10.418Z,60.55
2022-08-07T21:48:28.261Z,60.90
2022-08-07T21:51:05.372Z,60.86
2022-08-07T21:53:37.084Z,61.02
2022-08-07T21:56:39.673Z,61.14
2022-08-07T21:59:16.126Z,61.54
2022-08-07T22:02:11.282Z,61.74
2022-08-07T22:04:53.608Z,62.38
2022-08-07T22:07:31.636Z,62.58
2022-08-07T22:10:19.549Z,62.80
2022-08-07T22:12:54.144Z,62.62
2022-08-07T22:16:39.161Z,62.76
2022-08-07T22:18:19.346Z,63.35
2022-08-07T22:20:52.779Z,63.57
2022-08-07T22:23:27.287Z,63.57
2022-08-07T22:26:05.976Z,64.16
2022-08-07T22:28:48.308Z,64.58
2022-08-07T22:31:45.629Z,64.71
2022-08-07T22:34:28.882Z,64.70
2022-08-07T22:37:12.504Z,64.91
2022-08-07T22:39:52.736Z,65.14
2022-08-07T22:42:29.384Z,65.00
2022-08-07T22:45:02.422Z,65.39
2022-08-07T22:47:49.364Z,65.43
2022-08-07T22:50:49.546Z,65.64
2022-08-07T22:54:07.528Z,65.72
2022-08-07T22:56:24.288Z,65.65
2022-08-07T22:59:32.434Z,66.10
2022-08-07T23:02:11.885Z,65.99
2022-08-07T23:06:09.663Z,66.30
2022-08-07T23:07:58.106Z,66.41
2022-08-07T23:10:41.879Z,66.40
2022-08-07T23:13:48.345Z,66.64
2022-08-07T23:16:46.704Z,66.74
2022-08-07T23:19:52.185Z,66.81
2022-08-07T23:22:39.170Z,66.82
2022-08-07T23:25:21.062Z,67.03
2022-08-07T23:28:21.791Z,66.95
2022-08-07T23:31:13.826Z,67.40
2022-08-07T23:34:37.768Z,67.31
2022-08-07T23:37:25.022Z,67.47
2022-08-07T23:40:08.393Z,67.59
2022-08-07T23:42:49.679Z,67.46
2022-08-07T23:46:01.991Z,67.81
2022-08-07T23:48:33.970Z,67.87
2022-08-07T23:51:12.284Z,67.77
2022-08-07T23:53:59.330Z,68.22
2022-08-07T23:56:38.775Z,68.35
